Marianne — VRFM5 — position and weather

sailwx.info

Track history (hours):
 
Tides and Currents Weather Stations Pressure Air Temp Water Temp Dewpoint Dewpoint Depression Visibility Wind Speed Wind Dir Waves Ship Positions

Marianne

Last reported at 2016-Aug-26 11:33 UTC. Time now 2016-Aug-27 01:07 UTC.
Position N 39°10' W 009°56'.

Length 97 m; draft 5.5 m.

Type: Ship (hazmat cat B). MMSI: 477560836.

Date/timePositionNaut miles runAvg speedWind from/ knotsBaromVisibWave heightAir tempDewpointWater temp
2016-Aug-26 11:33N 39°10' W 009°56'1211.8
2016-Aug-26 10:34N 38°59' W 009°56'1211.8
2016-Aug-26 09:33N 38°47' W 009°56'1211.8
2016-Aug-26 08:33N 38°35' W 009°54'1111.4
2016-Aug-26 07:34N 38°28' W 009°43'1111.4
2016-Aug-26 06:33N 38°21' W 009°31'2412.1
2016-Aug-26 04:33N 38°06' W 009°07'1312.8
2016-Aug-26 03:33N 37°57' W 008°55'3 3.3
2016-Aug-26 02:33N 37°55' W 008°52'0 0.0
2016-Aug-26 01:33N 37°55' W 008°52'0 0.0
2016-Aug-26 00:31N 37°55' W 008°52'0 0.0
2016-Aug-25 23:31N 37°55' W 008°52'0 0.0
2016-Aug-25 22:31N 37°55' W 008°52'0 0.0
2016-Aug-25 21:31N 37°55' W 008°52'0 0.0
2016-Aug-25 20:31N 37°55' W 008°52'0 0.0
2016-Aug-25 19:31N 37°55' W 008°52'0 0.0
2016-Aug-25 18:31N 37°55' W 008°52'1 0.5
2016-Aug-25 17:33N 37°55' W 008°53'2 2.0
2016-Aug-25 16:32N 37°57' W 008°53'0 0.0
2016-Aug-25 15:32N 37°57' W 008°53'0 0.0
2016-Aug-25 14:32N 37°57' W 008°53'0 0.0
2016-Aug-25 13:32N 37°57' W 008°53'0 0.0
2016-Aug-25 12:32N 37°57' W 008°53'0 0.0
2016-Aug-25 11:32N 37°57' W 008°53'0 0.0
2016-Aug-25 10:32N 37°57' W 008°53'0 0.0
2016-Aug-25 09:26N 37°57' W 008°53'0 0.0
2016-Aug-25 08:32N 37°57' W 008°53'0 0.0
2016-Aug-25 07:32N 37°57' W 008°53'0 0.0
2016-Aug-25 06:32N 37°57' W 008°53'0 0.0
2016-Aug-25 04:32N 37°57' W 008°53'0 0.0
2016-Aug-25 03:32N 37°57' W 008°53'0 0.0
2016-Aug-25 02:29N 37°57' W 008°53'0 0.0
2016-Aug-25 01:32N 37°57' W 008°53'0 0.0
2016-Aug-25 00:26N 37°57' W 008°53'0 0.0
2016-Aug-24 23:32N 37°57' W 008°53'0 0.0
2016-Aug-24 22:33N 37°57' W 008°53'2 2.1
2016-Aug-24 21:33N 37°55' W 008°53'1 0.9
2016-Aug-24 20:32N 37°54' W 008°52'0 0.0
2016-Aug-24 19:29N 37°54' W 008°52'0 0.0
2016-Aug-24 18:32N 37°54' W 008°52'0 0.0
2016-Aug-24 17:32N 37°54' W 008°52'0 0.0
2016-Aug-24 16:32N 37°54' W 008°52'0 0.0
2016-Aug-24 15:32N 37°54' W 008°52'0 0.0
2016-Aug-24 14:32N 37°54' W 008°52'0 0.0
2016-Aug-24 13:26N 37°54' W 008°52'0 0.0
2016-Aug-24 12:26N 37°54' W 008°52'0 0.0
2016-Aug-24 11:32N 37°54' W 008°52'0 0.0
2016-Aug-24 10:32N 37°54' W 008°52'0 0.0
2016-Aug-24 09:32N 37°54' W 008°52'0 0.0
2016-Aug-24 08:29N 37°54' W 008°52'0 0.0
2016-Aug-24 07:32N 37°54' W 008°52'0 0.0
2016-Aug-24 06:32N 37°54' W 008°52'0 0.0
2016-Aug-24 04:32N 37°54' W 008°52'0 0.0
2016-Aug-24 03:32N 37°54' W 008°52'0 0.0
2016-Aug-24 02:32N 37°54' W 008°52'0 0.0
2016-Aug-24 01:32N 37°54' W 008°52'0 0.0
2016-Aug-24 00:32N 37°55' W 008°52'0 0.0
2016-Aug-23 23:32N 37°55' W 008°52'0 0.0
2016-Aug-23 22:32N 37°55' W 008°52'0 0.1
2016-Aug-23 21:32N 37°54' W 008°52'0 0.0
2016-Aug-23 20:32N 37°55' W 008°52'0 0.0
2016-Aug-23 19:32N 37°54' W 008°52'0 0.0
2016-Aug-23 18:32N 37°54' W 008°52'0 0.0
2016-Aug-23 17:32N 37°54' W 008°52'0 0.0
2016-Aug-23 16:32N 37°54' W 008°52'0 0.0
2016-Aug-23 15:32N 37°54' W 008°52'0 0.0
2016-Aug-23 14:29N 37°54' W 008°52'0 0.0
2016-Aug-23 13:29N 37°54' W 008°52'0 0.0
2016-Aug-23 12:32N 37°54' W 008°52'0 0.0
2016-Aug-23 11:32N 37°54' W 008°52'0 0.0
2016-Aug-23 10:32N 37°54' W 008°52'0 0.0
2016-Aug-23 09:32N 37°54' W 008°52'0 0.0
2016-Aug-23 08:32N 37°54' W 008°52'0 0.0
2016-Aug-23 07:32N 37°54' W 008°52'0 0.0
2016-Aug-23 06:32N 37°54' W 008°52'0 0.0
2016-Aug-23 05:32N 37°54' W 008°52'0 0.0
2016-Aug-23 04:32N 37°54' W 008°52'0 0.0
2016-Aug-23 03:32N 37°54' W 008°52'0 0.0
2016-Aug-23 02:32N 37°54' W 008°52'0 0.0
2016-Aug-23 01:32N 37°55' W 008°52'0 0.0
2016-Aug-23 00:32N 37°54' W 008°52'0 0.1
2016-Aug-22 23:32N 37°54' W 008°52'0 0.0
2016-Aug-22 22:32N 37°54' W 008°52'0 0.0
2016-Aug-22 21:32N 37°54' W 008°52'0 0.0
2016-Aug-22 20:32N 37°54' W 008°52'0 0.0
2016-Aug-22 19:32N 37°54' W 008°52'0 0.0
2016-Aug-22 18:32N 37°54' W 008°52'0 0.0
2016-Aug-22 17:32N 37°54' W 008°52'3 2.6
2016-Aug-22 16:33N 37°56' W 008°55'1212.4
2016-Aug-22 15:33N 38°03' W 009°08'1414.1
2016-Aug-22 14:34N 38°11' W 009°23'1414.4
2016-Aug-22 13:34N 38°18' W 009°38'1414.1
2016-Aug-22 12:33N 38°25' W 009°54'1413.9
2016-Aug-22 11:33N 38°33' W 010°09'1413.7
2016-Aug-22 10:33N 38°46' W 010°11'1414.3
2016-Aug-22 09:33N 39°00' W 010°08'1514.5
2016-Aug-22 08:31N 39°14' W 010°00'2814.1
2016-Aug-22 06:33N 39°38' W 009°44'4113.7
2016-Aug-22 03:33N 40°15' W 009°20'1413.5
2016-Aug-22 02:31N 40°28' W 009°12'  
2016-Aug-17 23:04N 49°46' W 003°33'814.6
2016-Aug-17 22:33N 49°50' W 003°23'1413.7
2016-Aug-17 21:33N 49°57' W 003°04'1212.3
2016-Aug-17 20:34N 50°02' W 002°46'1111.2
2016-Aug-17 19:33N 50°05' W 002°30'1010.4
2016-Aug-17 18:33N 50°08' W 002°14'1110.7
2016-Aug-17 17:33N 50°11' W 001°58'1212.1
2016-Aug-17 16:33N 50°15' W 001°40'1313.2
2016-Aug-17 15:33N 50°21' W 001°22'1514.7
2016-Aug-17 14:33N 50°32' W 001°06'1212.1
2016-Aug-17 13:34N 50°44' W 001°03'9 9.5
2016-Aug-17 12:34N 50°47' W 001°18'4 2.7
2016-Aug-17 11:13N 50°50' W 001°20'0 0.0
2016-Aug-17 08:19N 50°50' W 001°20'0 0.0
2016-Aug-17 07:31N 50°50' W 001°20'0 0.0
2016-Aug-17 06:19N 50°50' W 001°20'0 0.0
2016-Aug-16 20:28N 50°50' W 001°20'0 0.0
2016-Aug-16 19:22N 50°50' W 001°20'0 0.0
2016-Aug-16 18:22N 50°50' W 001°20'0 0.0
2016-Aug-16 17:22N 50°50' W 001°20'0 0.0
2016-Aug-16 16:31N 50°50' W 001°20'0 0.0
2016-Aug-16 15:28N 50°50' W 001°20'0 0.0
2016-Aug-16 14:28N 50°50' W 001°20'0 0.0
2016-Aug-16 13:31N 50°50' W 001°20'0 0.0
2016-Aug-16 12:31N 50°50' W 001°20'  
Track history (hours):
 
Tides and Currents Weather Stations Pressure Air Temp Water Temp Dewpoint Dewpoint Depression Visibility Wind Speed Wind Dir Waves Ship Positions

Marianne

Last reported at 2016-Aug-26 11:33 UTC. Time now 2016-Aug-27 01:07 UTC.
Position N 39°10' W 009°56'.

Length 97 m; draft 5.5 m.

Type: Ship (hazmat cat B). MMSI: 477560836.

Date/timePositionNaut miles runAvg speedWind from/ knotsBaromVisibWave heightAir tempDewpointWater temp
2016-Aug-26 11:33N 39°10' W 009°56'1211.8
2016-Aug-26 10:34N 38°59' W 009°56'1211.8
2016-Aug-26 09:33N 38°47' W 009°56'1211.8
2016-Aug-26 08:33N 38°35' W 009°54'1111.4
2016-Aug-26 07:34N 38°28' W 009°43'1111.4
2016-Aug-26 06:33N 38°21' W 009°31'2412.1
2016-Aug-26 04:33N 38°06' W 009°07'1312.8
2016-Aug-26 03:33N 37°57' W 008°55'3 3.3
2016-Aug-26 02:33N 37°55' W 008°52'0 0.0
2016-Aug-26 01:33N 37°55' W 008°52'0 0.0
2016-Aug-26 00:31N 37°55' W 008°52'0 0.0
2016-Aug-25 23:31N 37°55' W 008°52'0 0.0
2016-Aug-25 22:31N 37°55' W 008°52'0 0.0
2016-Aug-25 21:31N 37°55' W 008°52'0 0.0
2016-Aug-25 20:31N 37°55' W 008°52'0 0.0
2016-Aug-25 19:31N 37°55' W 008°52'0 0.0
2016-Aug-25 18:31N 37°55' W 008°52'1 0.5
2016-Aug-25 17:33N 37°55' W 008°53'2 2.0
2016-Aug-25 16:32N 37°57' W 008°53'0 0.0
2016-Aug-25 15:32N 37°57' W 008°53'0 0.0
2016-Aug-25 14:32N 37°57' W 008°53'0 0.0
2016-Aug-25 13:32N 37°57' W 008°53'0 0.0
2016-Aug-25 12:32N 37°57' W 008°53'0 0.0
2016-Aug-25 11:32N 37°57' W 008°53'0 0.0
2016-Aug-25 10:32N 37°57' W 008°53'0 0.0
2016-Aug-25 09:26N 37°57' W 008°53'0 0.0
2016-Aug-25 08:32N 37°57' W 008°53'0 0.0
2016-Aug-25 07:32N 37°57' W 008°53'0 0.0
2016-Aug-25 06:32N 37°57' W 008°53'0 0.0
2016-Aug-25 04:32N 37°57' W 008°53'0 0.0
2016-Aug-25 03:32N 37°57' W 008°53'0 0.0
2016-Aug-25 02:29N 37°57' W 008°53'0 0.0
2016-Aug-25 01:32N 37°57' W 008°53'0 0.0
2016-Aug-25 00:26N 37°57' W 008°53'0 0.0
2016-Aug-24 23:32N 37°57' W 008°53'0 0.0
2016-Aug-24 22:33N 37°57' W 008°53'2 2.1
2016-Aug-24 21:33N 37°55' W 008°53'1 0.9
2016-Aug-24 20:32N 37°54' W 008°52'0 0.0
2016-Aug-24 19:29N 37°54' W 008°52'0 0.0
2016-Aug-24 18:32N 37°54' W 008°52'0 0.0
2016-Aug-24 17:32N 37°54' W 008°52'0 0.0
2016-Aug-24 16:32N 37°54' W 008°52'0 0.0
2016-Aug-24 15:32N 37°54' W 008°52'0 0.0
2016-Aug-24 14:32N 37°54' W 008°52'0 0.0
2016-Aug-24 13:26N 37°54' W 008°52'0 0.0
2016-Aug-24 12:26N 37°54' W 008°52'0 0.0
2016-Aug-24 11:32N 37°54' W 008°52'0 0.0
2016-Aug-24 10:32N 37°54' W 008°52'0 0.0
2016-Aug-24 09:32N 37°54' W 008°52'0 0.0
2016-Aug-24 08:29N 37°54' W 008°52'0 0.0
2016-Aug-24 07:32N 37°54' W 008°52'0 0.0
2016-Aug-24 06:32N 37°54' W 008°52'0 0.0
2016-Aug-24 04:32N 37°54' W 008°52'0 0.0
2016-Aug-24 03:32N 37°54' W 008°52'0 0.0
2016-Aug-24 02:32N 37°54' W 008°52'0 0.0
2016-Aug-24 01:32N 37°54' W 008°52'0 0.0
2016-Aug-24 00:32N 37°55' W 008°52'0 0.0
2016-Aug-23 23:32N 37°55' W 008°52'0 0.0
2016-Aug-23 22:32N 37°55' W 008°52'0 0.1
2016-Aug-23 21:32N 37°54' W 008°52'0 0.0
2016-Aug-23 20:32N 37°55' W 008°52'0 0.0
2016-Aug-23 19:32N 37°54' W 008°52'0 0.0
2016-Aug-23 18:32N 37°54' W 008°52'0 0.0
2016-Aug-23 17:32N 37°54' W 008°52'0 0.0
2016-Aug-23 16:32N 37°54' W 008°52'0 0.0
2016-Aug-23 15:32N 37°54' W 008°52'0 0.0
2016-Aug-23 14:29N 37°54' W 008°52'0 0.0
2016-Aug-23 13:29N 37°54' W 008°52'0 0.0
2016-Aug-23 12:32N 37°54' W 008°52'0 0.0
2016-Aug-23 11:32N 37°54' W 008°52'0 0.0
2016-Aug-23 10:32N 37°54' W 008°52'0 0.0
2016-Aug-23 09:32N 37°54' W 008°52'0 0.0
2016-Aug-23 08:32N 37°54' W 008°52'0 0.0
2016-Aug-23 07:32N 37°54' W 008°52'0 0.0
2016-Aug-23 06:32N 37°54' W 008°52'0 0.0
2016-Aug-23 05:32N 37°54' W 008°52'0 0.0
2016-Aug-23 04:32N 37°54' W 008°52'0 0.0
2016-Aug-23 03:32N 37°54' W 008°52'0 0.0
2016-Aug-23 02:32N 37°54' W 008°52'0 0.0
2016-Aug-23 01:32N 37°55' W 008°52'0 0.0
2016-Aug-23 00:32N 37°54' W 008°52'0 0.1
2016-Aug-22 23:32N 37°54' W 008°52'0 0.0
2016-Aug-22 22:32N 37°54' W 008°52'0 0.0
2016-Aug-22 21:32N 37°54' W 008°52'0 0.0
2016-Aug-22 20:32N 37°54' W 008°52'0 0.0
2016-Aug-22 19:32N 37°54' W 008°52'0 0.0
2016-Aug-22 18:32N 37°54' W 008°52'0 0.0
2016-Aug-22 17:32N 37°54' W 008°52'3 2.6
2016-Aug-22 16:33N 37°56' W 008°55'1212.4
2016-Aug-22 15:33N 38°03' W 009°08'1414.1
2016-Aug-22 14:34N 38°11' W 009°23'1414.4
2016-Aug-22 13:34N 38°18' W 009°38'1414.1
2016-Aug-22 12:33N 38°25' W 009°54'1413.9
2016-Aug-22 11:33N 38°33' W 010°09'1413.7
2016-Aug-22 10:33N 38°46' W 010°11'1414.3
2016-Aug-22 09:33N 39°00' W 010°08'1514.5
2016-Aug-22 08:31N 39°14' W 010°00'2814.1
2016-Aug-22 06:33N 39°38' W 009°44'4113.7
2016-Aug-22 03:33N 40°15' W 009°20'1413.5
2016-Aug-22 02:31N 40°28' W 009°12'  
2016-Aug-17 23:04N 49°46' W 003°33'814.6
2016-Aug-17 22:33N 49°50' W 003°23'1413.7
2016-Aug-17 21:33N 49°57' W 003°04'1212.3
2016-Aug-17 20:34N 50°02' W 002°46'1111.2
2016-Aug-17 19:33N 50°05' W 002°30'1010.4
2016-Aug-17 18:33N 50°08' W 002°14'1110.7
2016-Aug-17 17:33N 50°11' W 001°58'1212.1
2016-Aug-17 16:33N 50°15' W 001°40'1313.2
2016-Aug-17 15:33N 50°21' W 001°22'1514.7
2016-Aug-17 14:33N 50°32' W 001°06'1212.1
2016-Aug-17 13:34N 50°44' W 001°03'9 9.5
2016-Aug-17 12:34N 50°47' W 001°18'4 2.7
2016-Aug-17 11:13N 50°50' W 001°20'0 0.0
2016-Aug-17 08:19N 50°50' W 001°20'0 0.0
2016-Aug-17 07:31N 50°50' W 001°20'0 0.0
2016-Aug-17 06:19N 50°50' W 001°20'0 0.0
2016-Aug-16 20:28N 50°50' W 001°20'0 0.0
2016-Aug-16 19:22N 50°50' W 001°20'0 0.0
2016-Aug-16 18:22N 50°50' W 001°20'0 0.0
2016-Aug-16 17:22N 50°50' W 001°20'0 0.0
2016-Aug-16 16:31N 50°50' W 001°20'0 0.0
2016-Aug-16 15:28N 50°50' W 001°20'0 0.0
2016-Aug-16 14:28N 50°50' W 001°20'0 0.0
2016-Aug-16 13:31N 50°50' W 001°20'0 0.0
2016-Aug-16 12:31N 50°50' W 001°20'  

Dump ship's entire track history